Terminal Aerodrome Forecast
Issued by NWS

Home | Current Version | Previous Version | Text Only | Print | Product List | Glossary On
Versions: 1 2 3 4 5 6 7 8 9 10 11 12 13
000
FTUS45 KVEF 220520
TAFBIH
TAF
KBIH 220520Z 2206/2306 VRB06KT P6SM FEW090
     FM221700 36012G20KT P6SM FEW090 SCT150
     FM221900 35020G30KT P6SM FEW090 SCT150=

USA.gov is the U.S. government's official web portal to all federal, state and local government web resources and services.